Time;durP1;ratioP1;P1;durP2;ratioP2;P2;SDS_P1;SDS_P2;PMS_P1;PMS_P2;Temp;Humidity;BMP_temperature;BMP_pressure;BME280_temperature;BME280_humidity;BME280_pressure;Samples;Min_cycle;Max_cycle;Signal;HPM_P1;HPM_P2
2022/03/12 00:01:16;;;;;;;8.60;5.95;;;;;;;;;;4963605;28;20054;-62
2022/03/12 00:03:43;;;;;;;9.68;6.20;;;;;;;;;;4950236;28;20046;-62
2022/03/12 00:06:10;;;;;;;9.35;5.95;;;;;;;;;;4974078;28;20089;-62
2022/03/12 00:08:46;;;;;;;10.05;6.05;;;;;;;;;;4954920;28;20062;-62
2022/03/12 00:11:14;;;;;;;11.73;6.65;;;;;;;;;;4964064;28;20078;-62
2022/03/12 00:13:41;;;;;;;10.80;5.93;;;;;;;;;;4956625;28;20224;-62
2022/03/12 00:16:14;;;;;;;9.38;5.90;;;;;;;;;;4964569;28;20440;-62
2022/03/12 00:18:42;;;;;;;11.60;6.20;;;;;;;;;;4961453;28;20046;-62
2022/03/12 00:21:12;;;;;;;11.07;6.07;;;;;;;;;;4960621;28;20050;-62
2022/03/12 00:23:40;;;;;;;10.63;6.47;;;;;;;;;;4967993;28;20055;-62
2022/03/12 00:26:07;;;;;;;11.27;6.68;;;;;;;;;;4960774;28;20131;-63
2022/03/12 00:28:33;;;;;;;10.73;6.45;;;;;;;;;;4980320;28;20173;-62
2022/03/12 00:31:00;;;;;;;9.70;5.70;;;;;;;;;;4971300;28;20046;-62
2022/03/12 00:33:27;;;;;;;15.93;6.55;;;;;;;;;;4975576;28;20419;-63
2022/03/12 00:35:53;;;;;;;10.95;6.30;;;;;;;;;;4973819;28;20054;-63
2022/03/12 00:38:21;;;;;;;14.52;7.03;;;;;;;;;;4973700;28;20504;-62
2022/03/12 00:40:47;;;;;;;10.60;6.47;;;;;;;;;;4977026;28;20046;-62
2022/03/12 00:43:14;;;;;;;11.40;6.57;;;;;;;;;;4974092;28;20047;-62
2022/03/12 00:45:41;;;;;;;10.32;6.25;;;;;;;;;;4973307;28;20065;-62
2022/03/12 00:48:08;;;;;;;10.23;5.45;;;;;;;;;;4970072;28;20493;-62
2022/03/12 00:50:55;;;;;;;10.40;6.60;;;;;;;;;;4984678;28;20054;-62
2022/03/12 00:53:21;;;;;;;12.75;5.85;;;;;;;;;;4974160;28;20063;-62
2022/03/12 00:55:47;;;;;;;10.27;5.93;;;;;;;;;;4975434;28;20065;-62
2022/03/12 00:58:13;;;;;;;11.15;6.63;;;;;;;;;;4965559;28;20042;-62
2022/03/12 01:00:40;;;;;;;12.93;6.07;;;;;;;;;;4956256;28;20054;-62
2022/03/12 01:03:07;;;;;;;13.70;6.30;;;;;;;;;;4981654;28;20061;-62
2022/03/12 01:05:43;;;;;;;11.48;6.28;;;;;;;;;;4974101;28;20043;-62
2022/03/12 01:08:09;;;;;;;10.20;6.13;;;;;;;;;;4981484;28;20520;-62
2022/03/12 01:10:35;;;;;;;10.35;6.25;;;;;;;;;;4976877;28;20058;-61
2022/03/12 01:13:02;;;;;;;12.98;6.90;;;;;;;;;;4969227;28;20052;-61
2022/03/12 01:15:28;;;;;;;12.75;6.85;;;;;;;;;;4963631;28;20455;-62
2022/03/12 01:17:54;;;;;;;10.40;6.30;;;;;;;;;;4973579;28;20065;-62
2022/03/12 01:20:24;;;;;;;10.25;5.93;;;;;;;;;;4979003;28;20050;-60
2022/03/12 01:22:50;;;;;;;9.90;6.30;;;;;;;;;;4974008;28;20315;-62
2022/03/12 01:25:16;;;;;;;12.82;5.65;;;;;;;;;;4981155;28;20073;-62
2022/03/12 01:27:43;;;;;;;11.25;6.55;;;;;;;;;;4965141;28;20276;-61
2022/03/12 01:30:09;;;;;;;11.80;6.15;;;;;;;;;;4967884;28;20047;-62
2022/03/12 01:32:36;;;;;;;9.52;6.05;;;;;;;;;;4970691;28;20057;-62
2022/03/12 01:35:03;;;;;;;10.30;6.63;;;;;;;;;;4965228;28;20058;-62
2022/03/12 01:37:30;;;;;;;13.48;6.50;;;;;;;;;;4976908;28;20050;-62
2022/03/12 01:39:56;;;;;;;11.10;6.22;;;;;;;;;;4960289;28;20433;-61
2022/03/12 01:42:24;;;;;;;11.85;6.18;;;;;;;;;;4971553;28;20054;-62
2022/03/12 01:44:51;;;;;;;10.68;6.00;;;;;;;;;;4979253;28;20042;-62
2022/03/12 01:47:19;;;;;;;12.52;6.43;;;;;;;;;;4975317;28;20377;-62
2022/03/12 01:49:47;;;;;;;19.10;6.57;;;;;;;;;;4976418;28;20061;-62
2022/03/12 01:52:13;;;;;;;11.43;6.28;;;;;;;;;;4973443;28;20046;-62
2022/03/12 01:54:42;;;;;;;11.15;6.50;;;;;;;;;;4971909;28;20050;-62
2022/03/12 01:57:11;;;;;;;12.82;6.95;;;;;;;;;;4974593;28;20051;-62
2022/03/12 01:59:38;;;;;;;11.82;6.45;;;;;;;;;;4977910;28;20050;-62
2022/03/12 02:02:07;;;;;;;13.15;6.45;;;;;;;;;;4973965;28;20073;-62
2022/03/12 02:04:36;;;;;;;11.57;6.40;;;;;;;;;;4960192;28;20050;-62
2022/03/12 02:07:02;;;;;;;11.63;6.72;;;;;;;;;;4976834;28;20052;-62
2022/03/12 02:09:29;;;;;;;8.75;5.95;;;;;;;;;;4963095;28;20531;-62
2022/03/12 02:11:55;;;;;;;10.15;6.15;;;;;;;;;;4978541;28;20421;-62
2022/03/12 02:14:23;;;;;;;12.73;6.80;;;;;;;;;;4974109;28;20446;-61
2022/03/12 02:16:50;;;;;;;12.93;7.10;;;;;;;;;;4968451;28;20050;-62
2022/03/12 02:19:17;;;;;;;11.80;6.80;;;;;;;;;;4974197;28;20074;-62
2022/03/12 02:21:48;;;;;;;11.60;6.60;;;;;;;;;;4972121;28;20503;-62
2022/03/12 02:24:16;;;;;;;9.68;6.18;;;;;;;;;;4985998;28;20065;-62
2022/03/12 02:26:43;;;;;;;9.73;6.13;;;;;;;;;;4972976;28;20488;-61
2022/03/12 02:29:12;;;;;;;12.32;6.50;;;;;;;;;;4976669;28;20468;-62
2022/03/12 02:31:39;;;;;;;12.95;7.03;;;;;;;;;;4979402;28;20042;-62
2022/03/12 02:34:09;;;;;;;11.20;6.65;;;;;;;;;;4966427;28;20043;-62
2022/03/12 02:36:35;;;;;;;11.73;6.88;;;;;;;;;;4973383;28;20085;-62
2022/03/12 02:39:05;;;;;;;13.88;7.03;;;;;;;;;;4957239;28;20059;-62
2022/03/12 02:41:31;;;;;;;11.18;7.22;;;;;;;;;;4972487;28;20228;-62
2022/03/12 02:43:58;;;;;;;11.35;6.57;;;;;;;;;;4957723;28;20054;-62
2022/03/12 02:46:30;;;;;;;13.93;7.25;;;;;;;;;;4968413;28;20050;-62
2022/03/12 02:48:56;;;;;;;11.95;7.03;;;;;;;;;;4964394;28;20054;-62
2022/03/12 02:51:25;;;;;;;12.07;7.15;;;;;;;;;;4958603;28;20065;-62
2022/03/12 02:53:54;;;;;;;13.63;7.13;;;;;;;;;;4977922;28;20089;-62
2022/03/12 02:56:20;;;;;;;14.00;7.35;;;;;;;;;;4972783;28;20106;-60
2022/03/12 02:58:46;;;;;;;12.95;7.32;;;;;;;;;;4973690;28;20058;-62
2022/03/12 03:01:14;;;;;;;13.55;8.15;;;;;;;;;;4964091;28;20435;-62
2022/03/12 03:03:45;;;;;;;15.13;7.63;;;;;;;;;;4974493;28;20049;-62
2022/03/12 03:06:14;;;;;;;12.85;7.00;;;;;;;;;;4983159;28;20046;-62
2022/03/12 03:08:41;;;;;;;13.95;8.10;;;;;;;;;;4976269;28;20053;-62
2022/03/12 03:11:12;;;;;;;11.65;7.55;;;;;;;;;;4978842;28;20066;-62
2022/03/12 03:13:44;;;;;;;14.43;7.88;;;;;;;;;;4970430;28;20492;-62
2022/03/12 03:16:21;;;;;;;12.88;7.55;;;;;;;;;;4976306;28;20077;-62
2022/03/12 03:18:52;;;;;;;12.63;7.28;;;;;;;;;;4959265;28;20043;-62
2022/03/12 03:21:21;;;;;;;11.07;6.68;;;;;;;;;;4965035;28;20050;-62
2022/03/12 03:23:48;;;;;;;13.57;7.55;;;;;;;;;;4959246;28;20053;-62
2022/03/12 03:26:18;;;;;;;13.40;7.32;;;;;;;;;;4972618;28;20468;-62
2022/03/12 03:28:45;;;;;;;12.13;7.35;;;;;;;;;;4963771;28;20274;-62
2022/03/12 03:31:11;;;;;;;14.68;7.50;;;;;;;;;;4960397;28;20627;-62
2022/03/12 03:33:38;;;;;;;12.10;7.45;;;;;;;;;;4971945;28;20058;-62
2022/03/12 03:36:04;;;;;;;13.15;7.60;;;;;;;;;;4959905;28;20141;-62
2022/03/12 03:38:30;;;;;;;12.73;7.38;;;;;;;;;;4964750;28;20047;-62
2022/03/12 03:40:56;;;;;;;13.27;8.10;;;;;;;;;;4954129;28;20051;-62
2022/03/12 03:43:23;;;;;;;15.55;7.45;;;;;;;;;;4958482;28;20436;-62
2022/03/12 03:45:56;;;;;;;16.25;8.68;;;;;;;;;;4970816;28;20058;-61
2022/03/12 03:48:28;;;;;;;12.13;7.47;;;;;;;;;;4956302;28;20141;-61
2022/03/12 03:50:54;;;;;;;14.13;8.50;;;;;;;;;;4967498;28;20419;-62
2022/03/12 03:53:22;;;;;;;14.25;7.90;;;;;;;;;;4964865;28;20115;-61
2022/03/12 03:55:49;;;;;;;15.15;7.90;;;;;;;;;;4970857;28;20057;-62
2022/03/12 03:58:15;;;;;;;14.48;7.80;;;;;;;;;;4966752;28;20062;-62
2022/03/12 04:00:51;;;;;;;12.82;7.25;;;;;;;;;;4970356;28;20055;-62
2022/03/12 04:03:19;;;;;;;15.38;9.00;;;;;;;;;;4981981;28;20042;-62
2022/03/12 04:05:45;;;;;;;14.35;8.57;;;;;;;;;;4976010;28;20085;-62
2022/03/12 04:08:11;;;;;;;14.90;8.93;;;;;;;;;;4977578;28;20046;-61
2022/03/12 04:10:38;;;;;;;17.98;9.27;;;;;;;;;;4966864;28;20055;-61
2022/03/12 04:13:10;;;;;;;16.95;8.07;;;;;;;;;;4980616;28;20069;-62
2022/03/12 04:15:37;;;;;;;13.55;8.88;;;;;;;;;;4977866;28;20054;-62
2022/03/12 04:18:04;;;;;;;15.40;8.20;;;;;;;;;;4967374;28;20416;-61
2022/03/12 04:20:31;;;;;;;15.27;8.23;;;;;;;;;;4971090;28;20475;-60
2022/03/12 04:22:57;;;;;;;14.45;8.30;;;;;;;;;;4959784;28;20059;-62
2022/03/12 04:25:24;;;;;;;15.57;8.63;;;;;;;;;;4976920;28;20677;-61
2022/03/12 04:27:50;;;;;;;15.50;8.77;;;;;;;;;;4968044;28;20519;-62
2022/03/12 04:30:20;;;;;;;17.83;8.70;;;;;;;;;;4983095;28;20097;-61
2022/03/12 04:32:47;;;;;;;13.13;8.43;;;;;;;;;;4977851;28;20051;-62
2022/03/12 04:35:15;;;;;;;16.92;8.38;;;;;;;;;;4975259;28;20054;-62
2022/03/12 04:37:41;;;;;;;13.85;8.25;;;;;;;;;;4966033;28;20090;-62
2022/03/12 04:40:14;;;;;;;14.13;7.88;;;;;;;;;;4968858;28;20043;-62
2022/03/12 04:42:43;;;;;;;12.68;8.15;;;;;;;;;;4978600;28;20046;-61
2022/03/12 04:45:19;;;;;;;12.93;8.18;;;;;;;;;;4974883;28;20492;-61
2022/03/12 04:47:47;;;;;;;12.88;7.95;;;;;;;;;;4966084;28;20488;-62
2022/03/12 04:50:13;;;;;;;12.85;7.97;;;;;;;;;;4967167;28;20380;-62
2022/03/12 04:52:40;;;;;;;18.00;8.50;;;;;;;;;;4959312;28;20046;-61
2022/03/12 04:55:07;;;;;;;12.73;7.70;;;;;;;;;;4966435;28;20062;-61
2022/03/12 04:57:34;;;;;;;12.65;8.60;;;;;;;;;;4958649;28;20067;-62
2022/03/12 05:00:04;;;;;;;12.82;8.25;;;;;;;;;;4973053;28;20054;-62
2022/03/12 05:02:32;;;;;;;13.15;8.55;;;;;;;;;;4977336;28;20046;-61
2022/03/12 05:04:58;;;;;;;13.33;8.17;;;;;;;;;;4967783;28;20055;-62
2022/03/12 05:07:26;;;;;;;12.52;8.05;;;;;;;;;;4973408;28;21020;-62
2022/03/12 05:09:55;;;;;;;16.35;7.97;;;;;;;;;;4964111;28;20046;-61
2022/03/12 05:12:23;;;;;;;12.95;7.65;;;;;;;;;;4968173;28;20055;-60
2022/03/12 05:14:54;;;;;;;15.40;8.35;;;;;;;;;;4975416;28;20050;-62
2022/03/12 05:17:24;;;;;;;12.82;8.13;;;;;;;;;;4983157;28;20542;-60
2022/03/12 05:19:51;;;;;;;15.60;8.05;;;;;;;;;;4969870;28;20066;-62
2022/03/12 05:22:17;;;;;;;13.13;7.45;;;;;;;;;;4978197;28;20066;-62
2022/03/12 05:24:43;;;;;;;16.08;8.60;;;;;;;;;;4974688;28;20389;-62
2022/03/12 05:27:17;;;;;;;14.10;8.45;;;;;;;;;;4971553;28;20050;-62
2022/03/12 05:29:46;;;;;;;15.00;8.57;;;;;;;;;;4979198;28;20053;-60
2022/03/12 05:32:13;;;;;;;;;;;;;;;;;;4971586;28;20054;-61
2022/03/12 05:34:39;;;;;;;16.40;8.18;;;;;;;;;;4977996;28;19926;-61
2022/03/12 05:37:09;;;;;;;13.55;8.00;;;;;;;;;;4962835;28;20077;-61
2022/03/12 05:39:36;;;;;;;15.30;8.05;;;;;;;;;;4966855;28;20062;-61
2022/03/12 05:42:05;;;;;;;16.20;7.82;;;;;;;;;;4967150;28;20056;-61
2022/03/12 05:44:34;;;;;;;11.25;7.15;;;;;;;;;;4960595;28;20057;-61
2022/03/12 05:47:01;;;;;;;11.60;7.15;;;;;;;;;;4962732;28;20050;-62
2022/03/12 05:49:27;;;;;;;14.05;7.80;;;;;;;;;;4954969;28;20057;-61
2022/03/12 05:51:55;;;;;;;16.13;8.07;;;;;;;;;;4966853;28;20527;-61
2022/03/12 05:54:21;;;;;;;12.95;7.82;;;;;;;;;;4958782;28;20058;-61
2022/03/12 05:56:47;;;;;;;15.55;7.72;;;;;;;;;;4966076;28;20058;-61
2022/03/12 05:59:14;;;;;;;18.45;8.80;;;;;;;;;;4965617;28;20062;-61
2022/03/12 06:01:40;;;;;;;15.10;8.15;;;;;;;;;;4949789;28;20062;-61
2022/03/12 06:04:08;;;;;;;18.50;7.95;;;;;;;;;;4963308;28;20501;-61
2022/03/12 06:06:35;;;;;;;14.40;7.97;;;;;;;;;;4957963;28;20127;-61
2022/03/12 06:09:07;;;;;;;15.27;8.15;;;;;;;;;;4973216;28;20049;-61
2022/03/12 06:11:37;;;;;;;15.15;7.72;;;;;;;;;;4971331;28;20046;-61
2022/03/12 06:14:05;;;;;;;13.82;7.22;;;;;;;;;;4981528;28;20056;-61
2022/03/12 06:16:33;;;;;;;14.45;8.35;;;;;;;;;;4961727;28;20428;-62
2022/03/12 06:19:00;;;;;;;14.17;7.93;;;;;;;;;;4964528;28;20137;-62
2022/03/12 06:21:27;;;;;;;15.73;8.60;;;;;;;;;;4974008;28;20295;-62
2022/03/12 06:23:54;;;;;;;13.70;8.98;;;;;;;;;;4967049;28;20409;-61
2022/03/12 06:26:25;;;;;;;20.70;8.48;;;;;;;;;;4979842;28;20050;-61
2022/03/12 06:28:51;;;;;;;13.18;8.18;;;;;;;;;;4965817;28;20051;-60
2022/03/12 06:31:19;;;;;;;13.43;7.88;;;;;;;;;;4960566;28;20311;-60
2022/03/12 06:33:45;;;;;;;13.55;8.20;;;;;;;;;;4967268;28;20055;-61
2022/03/12 06:36:13;;;;;;;13.00;7.65;;;;;;;;;;4961686;28;20387;-61
2022/03/12 06:38:39;;;;;;;12.73;7.00;;;;;;;;;;4965737;28;20057;-61
2022/03/12 06:41:06;;;;;;;13.85;7.65;;;;;;;;;;4965658;28;20050;-60
2022/03/12 06:43:33;;;;;;;14.75;7.35;;;;;;;;;;4966963;28;20077;-60
2022/03/12 06:46:01;;;;;;;15.48;8.43;;;;;;;;;;4964136;28;20055;-61
2022/03/12 06:48:28;;;;;;;12.70;8.13;;;;;;;;;;4971698;28;20105;-58
2022/03/12 06:50:55;;;;;;;12.85;7.85;;;;;;;;;;4971135;28;20094;-61
2022/03/12 06:53:21;;;;;;;11.23;7.63;;;;;;;;;;4960531;28;20058;-60
2022/03/12 06:55:47;;;;;;;13.05;7.55;;;;;;;;;;4963481;28;20643;-61
2022/03/12 06:58:14;;;;;;;14.15;7.75;;;;;;;;;;4954956;28;20087;-60
2022/03/12 07:00:40;;;;;;;12.70;7.55;;;;;;;;;;4969924;28;20056;-60
2022/03/12 07:03:07;;;;;;;11.30;7.47;;;;;;;;;;4970881;28;20436;-61
2022/03/12 07:05:34;;;;;;;15.38;8.05;;;;;;;;;;4958916;28;20527;-61
2022/03/12 07:08:00;;;;;;;11.75;7.55;;;;;;;;;;4966318;28;20109;-61
2022/03/12 07:10:28;;;;;;;13.98;7.28;;;;;;;;;;4954711;28;20281;-60
2022/03/12 07:12:55;;;;;;;12.32;7.22;;;;;;;;;;4967712;28;20055;-59
2022/03/12 07:15:22;;;;;;;13.68;7.82;;;;;;;;;;4973115;28;20051;-62
2022/03/12 07:17:48;;;;;;;14.27;8.00;;;;;;;;;;4963440;28;20763;-61
2022/03/12 07:20:15;;;;;;;12.75;6.93;;;;;;;;;;4964285;28;20062;-62
2022/03/12 07:22:42;;;;;;;12.05;7.53;;;;;;;;;;4959880;28;20086;-61
2022/03/12 07:25:09;;;;;;;15.55;7.78;;;;;;;;;;4975127;28;20053;-61
2022/03/12 07:27:35;;;;;;;14.95;7.93;;;;;;;;;;4962131;28;20050;-61
2022/03/12 07:30:02;;;;;;;10.80;6.80;;;;;;;;;;4980774;28;20054;-61
2022/03/12 07:32:29;;;;;;;15.18;8.90;;;;;;;;;;4971948;28;20092;-61
2022/03/12 07:34:55;;;;;;;14.68;8.00;;;;;;;;;;4966797;28;20050;-61
2022/03/12 07:37:21;;;;;;;18.10;8.13;;;;;;;;;;4978652;28;20050;-60
2022/03/12 07:39:48;;;;;;;13.05;8.00;;;;;;;;;;4950505;28;20066;-61
2022/03/12 07:42:14;;;;;;;13.13;8.32;;;;;;;;;;4966232;28;20053;-61
2022/03/12 07:44:41;;;;;;;12.98;8.40;;;;;;;;;;4962610;28;20046;-62
2022/03/12 07:47:07;;;;;;;13.50;8.23;;;;;;;;;;4971239;28;20046;-61
2022/03/12 07:49:34;;;;;;;12.10;7.18;;;;;;;;;;4976331;28;20055;-61
2022/03/12 07:52:00;;;;;;;14.63;7.43;;;;;;;;;;4952958;28;20394;-61
2022/03/12 07:54:27;;;;;;;13.10;7.32;;;;;;;;;;4960394;28;20518;-62
2022/03/12 07:56:53;;;;;;;11.10;6.93;;;;;;;;;;4958723;28;20046;-61
2022/03/12 07:59:20;;;;;;;11.52;7.10;;;;;;;;;;4965431;28;20062;-61
2022/03/12 08:01:46;;;;;;;15.77;8.07;;;;;;;;;;4958977;28;20523;-60
2022/03/12 08:04:12;;;;;;;11.75;7.18;;;;;;;;;;4964338;28;20059;-62
2022/03/12 08:06:39;;;;;;;14.63;8.27;;;;;;;;;;4960962;28;20054;-61
2022/03/12 08:09:05;;;;;;;12.68;7.30;;;;;;;;;;4965697;28;20050;-60
2022/03/12 08:11:32;;;;;;;12.52;7.47;;;;;;;;;;4972421;28;20053;-60
2022/03/12 08:14:02;;;;;;;13.63;8.02;;;;;;;;;;4965266;28;20434;-61
2022/03/12 08:16:29;;;;;;;9.57;6.60;;;;;;;;;;4971823;28;20050;-62
2022/03/12 08:18:56;;;;;;;13.63;7.55;;;;;;;;;;4981306;28;20042;-62
2022/03/12 08:21:23;;;;;;;12.82;7.60;;;;;;;;;;4962877;28;20073;-61
2022/03/12 08:23:49;;;;;;;11.80;7.57;;;;;;;;;;4979078;28;20495;-61
2022/03/12 08:26:16;;;;;;;15.32;7.95;;;;;;;;;;4960554;28;20058;-62
2022/03/12 08:28:43;;;;;;;12.65;7.75;;;;;;;;;;4978849;28;20070;-61
2022/03/12 08:31:09;;;;;;;12.98;7.18;;;;;;;;;;4973422;28;20050;-62
2022/03/12 08:33:37;;;;;;;14.25;7.15;;;;;;;;;;4976150;28;20054;-62
2022/03/12 08:36:06;;;;;;;16.08;7.57;;;;;;;;;;4978325;28;20092;-62
2022/03/12 08:38:35;;;;;;;13.88;7.68;;;;;;;;;;4975291;28;20058;-60
2022/03/12 08:41:02;;;;;;;14.40;7.88;;;;;;;;;;4975403;28;20538;-61
2022/03/12 08:43:29;;;;;;;11.30;6.90;;;;;;;;;;4975244;28;20149;-62
2022/03/12 08:45:55;;;;;;;10.57;6.47;;;;;;;;;;4973233;28;20055;-62
2022/03/12 08:48:21;;;;;;;13.45;7.38;;;;;;;;;;4954740;28;20050;-62
2022/03/12 08:50:48;;;;;;;12.65;7.15;;;;;;;;;;4970958;28;20051;-62
2022/03/12 08:53:16;;;;;;;10.48;6.80;;;;;;;;;;4963612;28;20792;-61
2022/03/12 08:55:42;;;;;;;12.50;7.00;;;;;;;;;;4967242;28;20055;-61
2022/03/12 08:58:08;;;;;;;12.05;6.82;;;;;;;;;;4968237;28;20055;-62
2022/03/12 09:00:35;;;;;;;9.50;6.47;;;;;;;;;;4968575;28;20058;-61
2022/03/12 09:03:02;;;;;;;9.30;6.18;;;;;;;;;;4976432;28;20050;-62
2022/03/12 09:05:28;;;;;;;12.25;6.45;;;;;;;;;;4954190;28;20052;-61
2022/03/12 09:07:55;;;;;;;10.10;6.05;;;;;;;;;;4974467;28;20252;-62
2022/03/12 09:10:23;;;;;;;9.63;6.25;;;;;;;;;;4970414;28;20054;-62
2022/03/12 09:12:49;;;;;;;11.53;7.20;;;;;;;;;;4976453;28;20054;-61
2022/03/12 09:15:16;;;;;;;11.38;6.20;;;;;;;;;;4974925;28;20051;-62
2022/03/12 09:17:43;;;;;;;9.52;6.43;;;;;;;;;;4953830;28;20051;-63
2022/03/12 09:20:09;;;;;;;14.93;6.50;;;;;;;;;;4967193;28;20061;-62
2022/03/12 09:22:36;;;;;;;10.52;6.60;;;;;;;;;;4968190;28;20051;-62
2022/03/12 09:25:02;;;;;;;9.57;6.68;;;;;;;;;;4973872;28;20506;-60
2022/03/12 09:27:28;;;;;;;10.65;5.90;;;;;;;;;;4982108;28;20046;-62
2022/03/12 09:29:55;;;;;;;11.52;6.47;;;;;;;;;;4964648;28;20049;-62
2022/03/12 09:32:22;;;;;;;18.80;6.35;;;;;;;;;;4978690;28;20058;-62
2022/03/12 09:34:49;;;;;;;11.70;6.97;;;;;;;;;;4959441;28;20421;-61
2022/03/12 09:37:16;;;;;;;12.32;6.03;;;;;;;;;;4975844;28;20052;-62
2022/03/12 09:39:43;;;;;;;9.15;5.88;;;;;;;;;;4972534;28;20054;-62
2022/03/12 09:42:10;;;;;;;9.88;6.45;;;;;;;;;;4972980;28;20375;-62
2022/03/12 09:44:36;;;;;;;11.63;6.47;;;;;;;;;;4970483;28;20385;-62
2022/03/12 09:47:03;;;;;;;11.38;6.65;;;;;;;;;;4957395;28;20419;-62
2022/03/12 09:49:29;;;;;;;12.20;6.47;;;;;;;;;;4969292;28;20146;-62
2022/03/12 09:51:57;;;;;;;8.15;5.40;;;;;;;;;;4959712;28;20393;-62
2022/03/12 09:54:24;;;;;;;10.65;6.43;;;;;;;;;;4966927;28;20061;-62
2022/03/12 09:56:50;;;;;;;9.55;5.43;;;;;;;;;;4958338;28;20408;-62
2022/03/12 09:59:16;;;;;;;14.13;6.38;;;;;;;;;;4961994;28;20047;-62
2022/03/12 10:01:43;;;;;;;9.60;5.82;;;;;;;;;;4969151;28;20058;-62
2022/03/12 10:04:09;;;;;;;9.77;5.55;;;;;;;;;;4959124;28;20046;-62
2022/03/12 10:06:36;;;;;;;11.23;5.20;;;;;;;;;;4967727;28;20049;-62
2022/03/12 10:09:03;;;;;;;9.55;4.85;;;;;;;;;;4961318;28;20049;-62
2022/03/12 10:11:30;;;;;;;8.68;5.28;;;;;;;;;;4961566;28;20078;-62
2022/03/12 10:13:56;;;;;;;8.30;5.50;;;;;;;;;;4956398;28;20562;-61
2022/03/12 10:16:22;;;;;;;8.93;5.45;;;;;;;;;;4969846;28;20055;-62
2022/03/12 10:18:49;;;;;;;9.85;5.90;;;;;;;;;;4967243;28;20137;-62
2022/03/12 10:21:16;;;;;;;11.15;5.85;;;;;;;;;;4959871;28;20066;-62
2022/03/12 10:23:43;;;;;;;8.55;5.70;;;;;;;;;;4976295;28;20085;-62
2022/03/12 10:26:09;;;;;;;12.90;6.10;;;;;;;;;;4968326;28;20046;-62
2022/03/12 10:28:36;;;;;;;7.78;4.47;;;;;;;;;;4978595;28;20046;-62
2022/03/12 10:31:05;;;;;;;28.10;6.13;;;;;;;;;;4970622;28;20058;-63
2022/03/12 10:33:33;;;;;;;9.65;5.45;;;;;;;;;;4977977;28;20445;-62
2022/03/12 10:36:13;;;;;;;8.75;4.53;;;;;;;;;;4980610;28;20641;-61
2022/03/12 10:38:43;;;;;;;9.00;3.88;;;;;;;;;;4958773;28;20055;-62
2022/03/12 10:41:10;;;;;;;7.05;4.57;;;;;;;;;;4965568;28;20050;-62
2022/03/12 10:43:50;;;;;;;9.68;4.00;;;;;;;;;;4967928;28;20142;-62
2022/03/12 10:46:19;;;;;;;7.90;4.07;;;;;;;;;;4980542;28;20046;-62
2022/03/12 10:48:49;;;;;;;7.60;4.10;;;;;;;;;;4972383;28;20054;-62
2022/03/12 10:51:16;;;;;;;9.93;4.20;;;;;;;;;;4978700;28;20057;-60
2022/03/12 10:53:45;;;;;;;8.50;3.80;;;;;;;;;;4974970;28;20046;-63
2022/03/12 10:56:11;;;;;;;;;;;;;;;;;;4965158;28;20050;-62
2022/03/12 10:58:37;;;;;;;7.80;4.00;;;;;;;;;;4977506;28;19926;-62
2022/03/12 11:01:04;;;;;;;9.25;3.13;;;;;;;;;;4957332;28;20059;-62
2022/03/12 11:03:31;;;;;;;9.05;3.97;;;;;;;;;;4965807;28;20081;-62
2022/03/12 11:05:58;;;;;;;8.77;4.60;;;;;;;;;;4953299;28;20571;-59
2022/03/12 11:08:29;;;;;;;7.55;3.45;;;;;;;;;;4975683;28;20288;-62
2022/03/12 11:11:00;;;;;;;6.05;3.35;;;;;;;;;;4963706;28;20053;-63
2022/03/12 11:13:39;;;;;;;10.32;3.80;;;;;;;;;;4956720;28;20071;-62
2022/03/12 11:16:14;;;;;;;8.07;4.18;;;;;;;;;;4963564;28;20117;-63
2022/03/12 11:18:47;;;;;;;11.93;4.50;;;;;;;;;;4955452;28;20138;-62
2022/03/12 11:21:16;;;;;;;9.10;4.22;;;;;;;;;;4968909;28;20043;-62
2022/03/12 11:23:42;;;;;;;8.80;4.25;;;;;;;;;;4963076;28;20067;-62
2022/03/12 11:26:09;;;;;;;8.32;3.88;;;;;;;;;;4986727;28;20078;-62
2022/03/12 11:28:36;;;;;;;9.35;3.40;;;;;;;;;;4982538;28;20408;-62
2022/03/12 11:31:04;;;;;;;9.38;4.15;;;;;;;;;;4968491;28;20793;-62
2022/03/12 11:33:31;;;;;;;8.93;4.35;;;;;;;;;;4979479;28;20058;-62
2022/03/12 11:36:02;;;;;;;5.85;3.42;;;;;;;;;;4961244;28;20043;-62
2022/03/12 11:38:29;;;;;;;7.25;3.97;;;;;;;;;;4977814;28;20541;-62
2022/03/12 11:41:12;;;;;;;11.43;4.15;;;;;;;;;;4962203;28;20497;-62
2022/03/12 11:43:39;;;;;;;7.97;3.50;;;;;;;;;;4974642;28;20138;-62
2022/03/12 11:46:07;;;;;;;7.90;4.03;;;;;;;;;;4970087;28;20066;-62
2022/03/12 11:48:36;;;;;;;7.25;3.83;;;;;;;;;;4970801;28;20055;-62
2022/03/12 11:51:23;;;;;;;9.52;3.55;;;;;;;;;;4983920;28;20046;-62
2022/03/12 11:53:50;;;;;;;7.82;4.20;;;;;;;;;;4980433;28;20484;-62
2022/03/12 11:56:17;;;;;;;11.50;4.55;;;;;;;;;;4986069;28;20084;-62
2022/03/12 11:58:44;;;;;;;9.98;4.65;;;;;;;;;;4977774;28;20050;-62
2022/03/12 12:01:11;;;;;;;7.32;4.75;;;;;;;;;;4964699;28;20055;-63
2022/03/12 12:03:38;;;;;;;10.33;4.53;;;;;;;;;;4964437;28;20141;-62
2022/03/12 12:06:06;;;;;;;7.57;3.72;;;;;;;;;;4981981;28;20057;-63
2022/03/12 12:08:32;;;;;;;8.90;4.47;;;;;;;;;;4969076;28;20119;-63
2022/03/12 12:11:01;;;;;;;7.82;4.07;;;;;;;;;;4963580;28;20039;-62
2022/03/12 12:13:29;;;;;;;9.20;4.97;;;;;;;;;;4977611;28;20081;-63
2022/03/12 12:15:57;;;;;;;8.57;4.93;;;;;;;;;;4975973;28;20059;-63
2022/03/12 12:18:23;;;;;;;11.25;5.25;;;;;;;;;;4973025;28;20074;-63
2022/03/12 12:20:49;;;;;;;11.90;4.85;;;;;;;;;;4966577;28;20605;-62
2022/03/12 12:23:19;;;;;;;8.48;4.32;;;;;;;;;;4973288;28;20572;-63
2022/03/12 12:25:46;;;;;;;9.38;4.75;;;;;;;;;;4972127;28;20058;-62
2022/03/12 12:28:13;;;;;;;15.10;5.55;;;;;;;;;;4960820;28;20089;-63
2022/03/12 12:30:43;;;;;;;8.38;4.80;;;;;;;;;;4968883;28;20047;-63
2022/03/12 12:33:26;;;;;;;10.90;5.35;;;;;;;;;;4977928;28;20053;-63
2022/03/12 12:36:08;;;;;;;7.18;4.65;;;;;;;;;;4972556;28;20050;-63
2022/03/12 12:38:35;;;;;;;8.68;4.72;;;;;;;;;;4971631;28;20058;-63
2022/03/12 12:41:03;;;;;;;7.15;4.25;;;;;;;;;;4972207;28;20051;-63
2022/03/12 12:43:34;;;;;;;9.80;4.47;;;;;;;;;;4961258;28;20046;-63
2022/03/12 12:46:08;;;;;;;9.70;4.10;;;;;;;;;;4983110;28;20412;-63
2022/03/12 12:48:38;;;;;;;7.97;4.47;;;;;;;;;;4990044;28;20738;-63
2022/03/12 12:51:11;;;;;;;8.05;4.10;;;;;;;;;;4970471;28;20047;-62
2022/03/12 12:53:40;;;;;;;8.05;4.20;;;;;;;;;;4990367;28;20086;-62
2022/03/12 12:56:19;;;;;;;8.43;4.60;;;;;;;;;;4975534;28;20043;-63
2022/03/12 12:59:06;;;;;;;9.80;4.53;;;;;;;;;;4989263;28;20498;-63
2022/03/12 13:01:36;;;;;;;11.07;4.43;;;;;;;;;;4978079;28;20050;-63
2022/03/12 13:04:05;;;;;;;8.43;4.35;;;;;;;;;;4980165;28;20057;-63
2022/03/12 13:06:40;;;;;;;7.95;4.00;;;;;;;;;;4965553;28;20046;-63
2022/03/12 13:09:17;;;;;;;7.45;4.20;;;;;;;;;;4973205;28;20050;-63
2022/03/12 13:11:47;;;;;;;8.95;4.43;;;;;;;;;;4963783;28;20051;-63
2022/03/12 13:14:18;;;;;;;8.93;4.10;;;;;;;;;;4981971;28;20156;-63
2022/03/12 13:17:03;;;;;;;8.52;4.20;;;;;;;;;;4971952;28;20054;-63
2022/03/12 13:19:35;;;;;;;7.85;4.43;;;;;;;;;;4966077;28;20047;-62
2022/03/12 13:22:06;;;;;;;9.18;3.83;;;;;;;;;;4966068;28;20719;-63
2022/03/12 13:24:42;;;;;;;8.80;4.07;;;;;;;;;;4960470;28;20428;-63
2022/03/12 13:27:16;;;;;;;7.18;3.72;;;;;;;;;;4971753;28;20057;-63
2022/03/12 13:29:42;;;;;;;8.80;3.90;;;;;;;;;;4964852;28;20051;-62
2022/03/12 13:32:21;;;;;;;9.88;3.90;;;;;;;;;;4979354;28;20072;-62
2022/03/12 13:34:47;;;;;;;7.50;4.20;;;;;;;;;;4972474;28;20046;-62
2022/03/12 13:37:13;;;;;;;8.55;3.30;;;;;;;;;;4980834;28;20566;-62
2022/03/12 13:39:40;;;;;;;6.53;3.67;;;;;;;;;;4987635;28;20050;-62
2022/03/12 13:42:07;;;;;;;6.40;3.30;;;;;;;;;;4977877;28;20050;-61
2022/03/12 13:44:34;;;;;;;8.27;3.33;;;;;;;;;;4971708;28;20518;-63
2022/03/12 13:47:01;;;;;;;8.60;3.78;;;;;;;;;;4959278;28;20059;-61
2022/03/12 13:49:28;;;;;;;9.10;3.97;;;;;;;;;;4966411;28;20066;-63
2022/03/12 13:51:56;;;;;;;8.35;3.53;;;;;;;;;;4974885;28;20057;-61
2022/03/12 13:54:23;;;;;;;5.70;3.50;;;;;;;;;;4971311;28;20058;-61
2022/03/12 13:56:50;;;;;;;7.18;2.83;;;;;;;;;;4974689;28;20260;-63
2022/03/12 13:59:27;;;;;;;6.95;3.00;;;;;;;;;;4964916;28;20054;-62
2022/03/12 14:01:54;;;;;;;7.13;3.03;;;;;;;;;;4963957;28;20050;-61
2022/03/12 14:04:25;;;;;;;7.93;3.45;;;;;;;;;;4973518;28;20085;-60
2022/03/12 14:07:15;;;;;;;7.90;3.47;;;;;;;;;;4985447;28;20324;-62
2022/03/12 14:09:46;;;;;;;9.02;3.97;;;;;;;;;;4978957;28;20518;-62
2022/03/12 14:12:17;;;;;;;6.10;3.00;;;;;;;;;;4981620;28;20081;-61
2022/03/12 14:14:46;;;;;;;8.10;3.13;;;;;;;;;;4974376;28;20419;-62
2022/03/12 14:17:12;;;;;;;6.65;2.72;;;;;;;;;;4970994;28;20053;-62
2022/03/12 14:19:40;;;;;;;9.32;2.85;;;;;;;;;;4982869;28;20057;-62
2022/03/12 14:22:06;;;;;;;5.70;2.75;;;;;;;;;;4970835;28;20049;-62
2022/03/12 14:24:40;;;;;;;8.00;2.53;;;;;;;;;;4979742;28;20094;-62
2022/03/12 14:27:07;;;;;;;6.43;2.80;;;;;;;;;;4961209;28;20042;-62
2022/03/12 14:29:41;;;;;;;7.60;2.65;;;;;;;;;;4969651;28;20137;-64
2022/03/12 14:32:08;;;;;;;7.47;2.80;;;;;;;;;;4973112;28;20051;-62
2022/03/12 14:34:35;;;;;;;5.95;2.83;;;;;;;;;;4982519;28;20057;-62
2022/03/12 14:37:03;;;;;;;7.60;3.08;;;;;;;;;;4973754;28;20665;-62
2022/03/12 14:39:30;;;;;;;6.50;2.40;;;;;;;;;;4978769;28;20047;-62
2022/03/12 14:41:58;;;;;;;6.25;2.85;;;;;;;;;;4974454;28;20286;-62